createdAt,value
2023-05-21T00:01:32.285Z,5.53
2023-05-21T00:04:17.770Z,5.28
2023-05-21T00:07:03.825Z,6.00
2023-05-21T00:09:48.874Z,4.32
2023-05-21T00:12:34.147Z,5.78
2023-05-21T00:15:19.459Z,7.03
2023-05-21T00:18:05.896Z,5.65
2023-05-21T00:20:51.830Z,7.78
2023-05-21T00:23:37.747Z,7.05
2023-05-21T00:26:26.521Z,7.35
2023-05-21T00:29:11.807Z,4.88
2023-05-21T00:31:57.140Z,6.55
2023-05-21T00:34:42.324Z,7.13
2023-05-21T00:37:29.937Z,5.20
2023-05-21T00:40:16.348Z,4.55
2023-05-21T00:43:02.089Z,5.82
2023-05-21T00:45:48.607Z,5.07
2023-05-21T00:48:34.546Z,7.43
2023-05-21T00:51:21.651Z,5.78
2023-05-21T00:54:08.255Z,6.60
2023-05-21T00:56:53.760Z,8.77
2023-05-21T00:59:39.126Z,10.30
2023-05-21T01:02:26.098Z,5.55
2023-05-21T01:05:11.753Z,6.80
2023-05-21T01:07:58.662Z,6.47
2023-05-21T01:10:44.519Z,5.97
2023-05-21T01:13:31.507Z,6.18
2023-05-21T01:16:17.924Z,4.72
2023-05-21T01:19:05.634Z,7.75
2023-05-21T01:21:57.533Z,4.57
2023-05-21T01:24:48.290Z,6.72
2023-05-21T01:27:33.667Z,7.88
2023-05-21T01:30:21.254Z,4.95
2023-05-21T01:33:18.498Z,7.95
2023-05-21T01:36:14.168Z,5.15
2023-05-21T01:39:09.854Z,9.57
2023-05-21T01:41:56.422Z,5.55
2023-05-21T01:44:42.721Z,6.78
2023-05-21T01:47:31.470Z,6.95
2023-05-21T01:50:18.500Z,10.30
2023-05-21T01:53:06.091Z,5.78
2023-05-21T01:55:51.227Z,6.50
2023-05-21T01:58:36.343Z,8.57
2023-05-21T02:01:21.835Z,6.53
2023-05-21T02:04:07.406Z,6.82
2023-05-21T02:06:54.925Z,6.95
2023-05-21T02:09:40.744Z,9.13
2023-05-21T02:12:28.323Z,6.13
2023-05-21T02:15:20.037Z,6.93
2023-05-21T02:18:05.421Z,4.88
2023-05-21T02:20:50.913Z,4.22
2023-05-21T02:23:36.907Z,9.07
2023-05-21T02:26:22.737Z,7.53
2023-05-21T02:29:07.998Z,9.50
2023-05-21T02:31:52.961Z,5.50
2023-05-21T02:34:42.298Z,4.68
2023-05-21T02:37:28.330Z,4.72
2023-05-21T02:40:13.733Z,7.97
2023-05-21T02:42:58.969Z,7.75
2023-05-21T02:45:44.012Z,7.85
2023-05-21T02:48:29.693Z,6.93
2023-05-21T02:51:14.777Z,6.75
2023-05-21T02:53:59.824Z,6.70
2023-05-21T02:56:45.296Z,6.82
2023-05-21T02:59:30.837Z,8.88
2023-05-21T03:02:17.439Z,6.68
2023-05-21T03:05:03.613Z,8.50
2023-05-21T03:07:48.656Z,9.73
2023-05-21T03:10:33.937Z,7.88
2023-05-21T03:13:19.154Z,7.65
2023-05-21T03:16:05.376Z,8.30
2023-05-21T03:18:50.668Z,7.10
2023-05-21T03:21:36.283Z,6.57
2023-05-21T03:24:22.024Z,7.63
2023-05-21T03:27:08.256Z,7.90
2023-05-21T03:29:55.778Z,12.02
2023-05-21T03:32:41.554Z,10.27
2023-05-21T03:35:26.697Z,9.65
2023-05-21T03:38:11.963Z,10.80
2023-05-21T03:40:57.370Z,9.65
2023-05-21T03:43:42.758Z,9.07
2023-05-21T03:46:28.337Z,9.57
2023-05-21T03:49:14.482Z,10.13
2023-05-21T03:51:59.892Z,7.63
2023-05-21T03:54:45.684Z,9.95
2023-05-21T03:57:30.946Z,8.10
2023-05-21T04:00:16.286Z,7.82
2023-05-21T04:03:01.760Z,7.50
2023-05-21T04:05:47.366Z,7.45
2023-05-21T04:08:32.719Z,6.93
2023-05-21T04:11:17.974Z,8.68
2023-05-21T04:13:48.222Z,7.72
2023-05-21T04:16:19.502Z,11.38
2023-05-21T04:18:46.969Z,9.02
2023-05-21T04:21:14.070Z,8.60
2023-05-21T04:23:40.929Z,8.48
2023-05-21T04:26:07.888Z,8.88
2023-05-21T04:28:35.451Z,10.45
2023-05-21T04:31:02.748Z,7.43
2023-05-21T04:33:30.432Z,11.43
2023-05-21T04:35:57.812Z,7.70
2023-05-21T04:38:24.775Z,7.70
2023-05-21T04:40:51.937Z,7.15
2023-05-21T04:43:25.559Z,8.95
2023-05-21T04:45:54.723Z,9.30
2023-05-21T04:48:26.875Z,10.15
2023-05-21T04:50:54.099Z,7.22
2023-05-21T04:53:20.947Z,10.45
2023-05-21T04:55:48.102Z,9.82
2023-05-21T04:58:17.985Z,8.25
2023-05-21T05:00:51.688Z,9.95
2023-05-21T05:03:18.777Z,10.10
2023-05-21T05:05:46.262Z,7.18
2023-05-21T05:08:15.529Z,8.20
2023-05-21T05:10:43.042Z,7.80
2023-05-21T05:13:09.918Z,9.07
2023-05-21T05:15:37.009Z,9.07
2023-05-21T05:18:04.144Z,9.75
2023-05-21T05:20:31.203Z,6.70
2023-05-21T05:22:57.996Z,8.38
2023-05-21T05:25:24.920Z,13.48
2023-05-21T05:27:51.668Z,7.80
2023-05-21T05:30:18.498Z,8.30
2023-05-21T05:32:45.701Z,8.65
2023-05-21T05:35:12.964Z,10.45
2023-05-21T05:37:39.725Z,10.88
2023-05-21T05:40:08.114Z,10.35
2023-05-21T05:42:35.014Z,9.02
2023-05-21T05:45:01.877Z,7.57
2023-05-21T05:47:28.764Z,9.57
2023-05-21T05:49:55.684Z,6.95
2023-05-21T05:52:22.649Z,9.23
2023-05-21T05:54:49.491Z,9.85
2023-05-21T05:57:16.443Z,9.35
2023-05-21T05:59:43.264Z,9.75
2023-05-21T06:02:10.410Z,10.68
2023-05-21T06:04:37.251Z,11.77
2023-05-21T06:07:04.175Z,10.27
2023-05-21T06:09:31.294Z,7.68
2023-05-21T06:11:58.150Z,8.40
2023-05-21T06:14:24.991Z,8.57
2023-05-21T06:16:51.949Z,10.32
2023-05-21T06:19:19.072Z,10.90
2023-05-21T06:21:46.006Z,7.95
2023-05-21T06:24:12.893Z,9.07
2023-05-21T06:26:39.730Z,12.45
2023-05-21T06:29:06.905Z,9.57
2023-05-21T06:31:34.254Z,11.57
2023-05-21T06:34:01.374Z,7.88
2023-05-21T06:36:30.157Z,10.00
2023-05-21T06:38:57.255Z,10.27
2023-05-21T06:41:24.328Z,8.52
2023-05-21T06:43:51.442Z,10.77
2023-05-21T06:46:18.523Z,10.65
2023-05-21T06:48:46.428Z,9.35
2023-05-21T06:51:13.306Z,9.88
2023-05-21T06:53:40.317Z,11.07
2023-05-21T06:56:07.385Z,9.65
2023-05-21T06:58:34.255Z,8.70
2023-05-21T07:01:01.738Z,7.90
2023-05-21T07:03:28.775Z,10.98
2023-05-21T07:05:57.065Z,9.32
2023-05-21T07:08:23.951Z,9.02
2023-05-21T07:10:50.827Z,9.80
2023-05-21T07:13:17.733Z,12.48
2023-05-21T07:15:44.534Z,9.95
2023-05-21T07:18:12.114Z,9.20
2023-05-21T07:20:38.957Z,9.32
2023-05-21T07:23:05.892Z,12.02
2023-05-21T07:25:32.765Z,8.93
2023-05-21T07:27:59.569Z,10.68
2023-05-21T07:30:26.549Z,10.82
2023-05-21T07:32:53.366Z,11.82
2023-05-21T07:35:20.518Z,10.10
2023-05-21T07:37:48.073Z,8.02
2023-05-21T07:40:14.955Z,7.57
2023-05-21T07:42:41.790Z,11.20
2023-05-21T07:45:08.924Z,10.90
2023-05-21T07:47:35.960Z,9.88
2023-05-21T07:50:02.954Z,9.75
2023-05-21T07:52:29.909Z,9.10
2023-05-21T07:54:56.740Z,8.63
2023-05-21T07:57:23.585Z,8.98
2023-05-21T07:59:51.154Z,10.48
2023-05-21T08:02:17.925Z,9.45
2023-05-21T08:04:44.845Z,12.13
2023-05-21T08:07:13.773Z,10.85
2023-05-21T08:09:40.782Z,10.32
2023-05-21T08:12:07.826Z,12.75
2023-05-21T08:14:34.695Z,9.80
2023-05-21T08:17:01.531Z,9.80
2023-05-21T08:19:28.519Z,10.95
2023-05-21T08:21:55.730Z,9.52
2023-05-21T08:24:23.696Z,11.10
2023-05-21T08:26:50.964Z,10.68
2023-05-21T08:29:17.782Z,11.23
2023-05-21T08:31:44.725Z,9.25
2023-05-21T08:34:11.556Z,10.30
2023-05-21T08:36:38.625Z,9.63
2023-05-21T08:39:05.348Z,9.85
2023-05-21T08:41:35.250Z,10.80
2023-05-21T08:44:02.903Z,11.02
2023-05-21T08:46:34.807Z,9.25
2023-05-21T08:49:03.480Z,9.07
2023-05-21T08:51:31.439Z,9.95
2023-05-21T08:54:01.618Z,12.65
2023-05-21T08:56:29.448Z,11.00
2023-05-21T08:58:56.652Z,11.38
2023-05-21T09:01:26.448Z,11.15
2023-05-21T09:04:04.879Z,12.98
2023-05-21T09:06:35.507Z,15.23
2023-05-21T09:09:30.037Z,11.25
2023-05-21T09:11:56.854Z,10.57
2023-05-21T09:14:24.582Z,13.88
2023-05-21T09:16:51.644Z,10.35
2023-05-21T09:19:22.007Z,10.05
2023-05-21T09:21:51.667Z,11.57
2023-05-21T09:24:23.097Z,12.40
2023-05-21T09:26:50.420Z,9.85
2023-05-21T09:29:17.263Z,11.15
2023-05-21T09:31:47.898Z,10.43
2023-05-21T09:34:15.171Z,10.75
2023-05-21T09:36:41.937Z,12.82
2023-05-21T09:39:08.796Z,14.00
2023-05-21T09:41:36.826Z,10.43
2023-05-21T09:44:04.288Z,11.45
2023-05-21T09:46:41.841Z,9.13
2023-05-21T09:49:26.424Z,11.18
2023-05-21T09:51:58.026Z,10.73
2023-05-21T09:54:26.499Z,10.32
2023-05-21T09:56:53.712Z,11.35
2023-05-21T09:59:21.218Z,13.85
2023-05-21T10:01:52.243Z,10.73
2023-05-21T10:04:20.077Z,11.38
2023-05-21T10:06:48.279Z,9.88
2023-05-21T10:09:18.901Z,10.48
2023-05-21T10:11:49.171Z,14.30
2023-05-21T10:14:25.435Z,10.18
2023-05-21T10:16:54.393Z,11.35
2023-05-21T10:19:23.661Z,11.77
2023-05-21T10:21:52.814Z,15.35
2023-05-21T10:24:20.141Z,8.27
2023-05-21T10:26:47.970Z,13.85
2023-05-21T10:29:18.145Z,10.50
2023-05-21T10:31:49.994Z,10.43
2023-05-21T10:34:17.657Z,11.07
2023-05-21T10:36:45.986Z,11.20
2023-05-21T10:39:14.539Z,7.75
2023-05-21T10:42:00.000Z,8.93
2023-05-21T10:44:52.273Z,10.40
2023-05-21T10:47:36.315Z,9.55
2023-05-21T10:50:21.941Z,8.68
2023-05-21T10:52:58.069Z,7.25
2023-05-21T10:56:02.302Z,7.05
2023-05-21T10:59:00.965Z,8.23
2023-05-21T11:01:34.066Z,8.43
2023-05-21T11:04:01.842Z,8.20
2023-05-21T11:06:28.703Z,9.52
2023-05-21T11:08:55.975Z,8.75
2023-05-21T11:11:51.680Z,8.55
2023-05-21T11:14:35.097Z,8.65
2023-05-21T11:17:08.214Z,8.75
2023-05-21T11:19:43.865Z,6.88
2023-05-21T11:22:21.529Z,7.70
2023-05-21T11:24:51.178Z,8.15
2023-05-21T11:27:42.208Z,8.27
2023-05-21T11:30:19.633Z,7.47
2023-05-21T11:33:10.142Z,10.82
2023-05-21T11:35:46.278Z,10.30
2023-05-21T11:38:13.194Z,11.35
2023-05-21T11:40:50.727Z,11.25
2023-05-21T11:43:18.610Z,8.45
2023-05-21T11:45:47.331Z,7.88
2023-05-21T11:48:14.501Z,7.10
2023-05-21T11:50:42.467Z,6.80
2023-05-21T11:53:12.224Z,7.85
2023-05-21T11:55:43.622Z,7.57
2023-05-21T11:58:14.409Z,6.95
2023-05-21T12:00:41.337Z,9.57
2023-05-21T12:03:12.763Z,10.63
2023-05-21T12:05:49.806Z,9.68
2023-05-21T12:10:59.997Z,7.97
2023-05-21T12:13:27.835Z,9.13
2023-05-21T12:15:54.826Z,8.63
2023-05-21T12:18:22.034Z,9.57
2023-05-21T12:20:48.951Z,9.30
2023-05-21T12:23:25.688Z,7.63
2023-05-21T12:25:53.841Z,8.77
2023-05-21T12:28:22.283Z,8.73
2023-05-21T12:30:49.231Z,9.23
2023-05-21T12:33:17.953Z,8.52
2023-05-21T12:35:50.467Z,8.57
2023-05-21T12:38:17.717Z,6.93
2023-05-21T12:40:45.757Z,9.40
2023-05-21T12:43:12.976Z,10.07
2023-05-21T12:45:39.940Z,7.22
2023-05-21T12:48:06.887Z,8.70
2023-05-21T12:50:39.088Z,10.23
2023-05-21T12:53:09.438Z,9.93
2023-05-21T12:55:36.212Z,8.10
2023-05-21T12:58:05.557Z,12.32
2023-05-21T13:00:33.301Z,7.00
2023-05-21T13:03:02.075Z,8.60
2023-05-21T13:05:29.138Z,8.88
2023-05-21T13:07:56.012Z,7.72
2023-05-21T13:10:22.822Z,8.07
2023-05-21T13:12:49.692Z,9.52
2023-05-21T13:15:16.908Z,9.38
2023-05-21T13:17:43.999Z,10.90
2023-05-21T13:20:23.705Z,9.93
2023-05-21T13:22:51.956Z,11.55
2023-05-21T13:25:21.512Z,8.73
2023-05-21T13:27:50.055Z,8.73
2023-05-21T13:30:17.489Z,10.35
2023-05-21T13:32:45.001Z,8.07
2023-05-21T13:35:12.677Z,8.32
2023-05-21T13:37:40.411Z,8.13
2023-05-21T13:40:11.195Z,10.98
2023-05-21T13:42:38.890Z,7.85
2023-05-21T13:45:10.983Z,9.27
2023-05-21T13:47:40.447Z,9.30
2023-05-21T13:50:08.831Z,10.73
2023-05-21T13:52:36.445Z,7.88
2023-05-21T13:55:03.632Z,11.13
2023-05-21T13:57:31.139Z,10.32
2023-05-21T13:59:59.199Z,10.05
2023-05-21T14:02:26.394Z,9.38
2023-05-21T14:04:53.796Z,8.00
2023-05-21T14:07:21.564Z,9.52
2023-05-21T14:09:48.607Z,10.65
2023-05-21T14:12:15.801Z,15.38
2023-05-21T14:14:42.556Z,9.25
2023-05-21T14:17:09.355Z,9.07
2023-05-21T14:19:36.599Z,7.93
2023-05-21T14:22:03.616Z,8.80
2023-05-21T14:24:30.455Z,9.18
2023-05-21T14:26:57.496Z,9.98
2023-05-21T14:29:24.713Z,9.68
2023-05-21T14:31:51.680Z,9.88
2023-05-21T14:34:18.737Z,8.77
2023-05-21T14:36:45.478Z,9.32
2023-05-21T14:39:12.278Z,8.82
2023-05-21T14:41:39.751Z,8.50
2023-05-21T14:44:06.652Z,7.82
2023-05-21T14:46:33.652Z,8.00
2023-05-21T14:49:00.823Z,7.13
2023-05-21T14:51:27.673Z,7.53
2023-05-21T14:53:55.731Z,10.15
2023-05-21T14:56:23.449Z,9.80
2023-05-21T14:58:50.270Z,7.72
2023-05-21T15:01:17.279Z,8.20
2023-05-21T15:03:44.219Z,11.60
2023-05-21T15:06:11.003Z,7.10
2023-05-21T15:08:37.859Z,8.93
2023-05-21T15:11:07.515Z,7.65
2023-05-21T15:13:34.510Z,7.05
2023-05-21T15:16:01.529Z,12.20
2023-05-21T15:18:29.671Z,7.55
2023-05-21T15:20:56.525Z,8.15
2023-05-21T15:23:23.303Z,6.57
2023-05-21T15:25:50.298Z,8.40
2023-05-21T15:28:17.118Z,8.10
2023-05-21T15:30:44.026Z,7.65
2023-05-21T15:33:11.530Z,8.65
2023-05-21T15:35:39.034Z,8.73
2023-05-21T15:38:06.315Z,7.88
2023-05-21T15:40:33.404Z,7.80
2023-05-21T15:43:02.741Z,12.02
2023-05-21T15:45:29.588Z,9.13
2023-05-21T15:47:56.436Z,7.78
2023-05-21T15:50:23.324Z,6.50
2023-05-21T15:52:52.952Z,9.25
2023-05-21T15:55:20.494Z,8.52
2023-05-21T15:57:47.412Z,7.80
2023-05-21T16:00:14.758Z,7.47
2023-05-21T16:02:42.050Z,10.52
2023-05-21T16:05:09.490Z,9.02
2023-05-21T16:07:37.903Z,8.93
2023-05-21T16:10:06.304Z,7.88
2023-05-21T16:12:33.281Z,7.82
2023-05-21T16:15:00.253Z,9.15
2023-05-21T16:17:27.190Z,9.02
2023-05-21T16:19:54.284Z,12.20
2023-05-21T16:22:21.276Z,10.10
2023-05-21T16:24:48.243Z,8.55
2023-05-21T16:27:15.260Z,10.70
2023-05-21T16:29:42.660Z,6.65
2023-05-21T16:32:10.607Z,9.40
2023-05-21T16:34:37.566Z,8.48
2023-05-21T16:37:04.709Z,9.70
2023-05-21T16:39:31.565Z,9.13
2023-05-21T16:41:59.877Z,10.32
2023-05-21T16:44:27.500Z,8.68
2023-05-21T16:46:54.417Z,10.30
2023-05-21T16:49:21.183Z,10.25
2023-05-21T16:51:47.987Z,8.95
2023-05-21T16:54:15.017Z,8.55
2023-05-21T16:56:41.914Z,8.38
2023-05-21T16:59:08.726Z,14.25
2023-05-21T17:01:35.559Z,11.13
2023-05-21T17:04:02.765Z,9.98
2023-05-21T17:06:29.636Z,9.05
2023-05-21T17:08:56.585Z,8.80
2023-05-21T17:11:23.459Z,8.82
2023-05-21T17:13:50.424Z,10.57
2023-05-21T17:16:17.230Z,10.82
2023-05-21T17:18:44.226Z,8.05
2023-05-21T17:21:11.019Z,10.40
2023-05-21T17:23:37.987Z,10.18
2023-05-21T17:26:07.623Z,9.27
2023-05-21T17:28:34.821Z,9.63
2023-05-21T17:31:01.912Z,10.00
2023-05-21T17:33:28.977Z,8.88
2023-05-21T17:35:58.564Z,10.70
2023-05-21T17:38:25.413Z,8.68
2023-05-21T17:40:52.193Z,8.77
2023-05-21T17:43:18.947Z,11.65
2023-05-21T17:45:45.928Z,7.45
2023-05-21T17:48:12.950Z,9.80
2023-05-21T17:50:39.782Z,8.73
2023-05-21T17:53:06.588Z,9.10
2023-05-21T17:55:33.376Z,8.98
2023-05-21T17:58:00.412Z,8.80
2023-05-21T18:00:27.239Z,10.82
2023-05-21T18:02:54.040Z,8.35
2023-05-21T18:05:20.909Z,11.45
2023-05-21T18:07:48.186Z,11.38
2023-05-21T18:10:15.569Z,10.27
2023-05-21T18:12:42.466Z,7.68
2023-05-21T18:15:09.703Z,8.07
2023-05-21T18:17:36.482Z,9.05
2023-05-21T18:20:04.433Z,8.40
2023-05-21T18:22:31.224Z,10.20
2023-05-21T18:24:58.092Z,7.57
2023-05-21T18:27:24.817Z,8.10
2023-05-21T18:29:51.613Z,9.85
2023-05-21T18:32:18.511Z,8.15
2023-05-21T18:34:45.387Z,8.55
2023-05-21T18:37:12.150Z,8.95
2023-05-21T18:39:38.896Z,8.93
2023-05-21T18:44:38.863Z,8.70
2023-05-21T18:47:06.052Z,7.43
2023-05-21T18:49:35.315Z,9.10
2023-05-21T18:52:02.265Z,7.50
2023-05-21T18:54:30.351Z,9.77
2023-05-21T18:56:59.734Z,8.27
2023-05-21T18:59:27.989Z,9.13
2023-05-21T19:01:55.077Z,9.05
2023-05-21T19:04:21.879Z,7.43
2023-05-21T19:06:48.705Z,7.15
2023-05-21T19:09:15.500Z,8.70
2023-05-21T19:11:42.254Z,9.23
2023-05-21T19:14:09.064Z,9.95
2023-05-21T19:16:36.021Z,7.72
2023-05-21T19:19:04.040Z,11.20
2023-05-21T19:21:31.436Z,11.73
2023-05-21T19:23:58.724Z,8.65
2023-05-21T19:26:25.642Z,12.02
2023-05-21T19:28:55.516Z,8.80
2023-05-21T19:31:23.283Z,9.52
2023-05-21T19:33:50.707Z,9.32
2023-05-21T19:36:18.467Z,7.70
2023-05-21T19:38:49.789Z,8.80
2023-05-21T19:41:17.076Z,8.93
2023-05-21T19:43:45.225Z,9.23
2023-05-21T19:46:12.123Z,7.10
2023-05-21T19:48:39.034Z,7.47
2023-05-21T19:51:05.951Z,8.18
2023-05-21T19:53:32.730Z,6.43
2023-05-21T19:55:59.844Z,6.60
2023-05-21T19:58:29.451Z,8.10
2023-05-21T20:00:59.189Z,8.48
2023-05-21T20:03:26.863Z,7.38
2023-05-21T20:05:54.214Z,8.13
2023-05-21T20:08:21.359Z,8.88
2023-05-21T20:10:50.563Z,7.70
2023-05-21T20:13:18.804Z,7.30
2023-05-21T20:15:45.604Z,9.07
2023-05-21T20:18:13.010Z,7.70
2023-05-21T20:20:41.480Z,10.60
2023-05-21T20:23:08.917Z,8.00
2023-05-21T20:25:35.841Z,9.73
2023-05-21T20:28:03.583Z,7.82
2023-05-21T20:30:34.954Z,7.05
2023-05-21T20:33:02.977Z,7.88
2023-05-21T20:35:30.112Z,7.45
2023-05-21T20:37:56.988Z,7.20
2023-05-21T20:40:23.867Z,7.32
2023-05-21T20:42:53.041Z,8.77
2023-05-21T20:45:21.079Z,8.10
2023-05-21T20:47:49.662Z,8.00
2023-05-21T20:50:17.663Z,7.60
2023-05-21T20:52:47.121Z,6.82
2023-05-21T20:55:14.634Z,6.57
2023-05-21T20:57:42.128Z,8.23
2023-05-21T21:00:11.836Z,7.22
2023-05-21T21:02:39.112Z,7.32
2023-05-21T21:05:06.451Z,6.85
2023-05-21T21:07:34.228Z,7.95
2023-05-21T21:10:01.420Z,6.60
2023-05-21T21:12:28.488Z,9.13
2023-05-21T21:14:55.643Z,6.53
2023-05-21T21:17:23.064Z,9.10
2023-05-21T21:19:50.069Z,7.10
2023-05-21T21:22:18.198Z,8.80
2023-05-21T21:24:45.552Z,10.35
2023-05-21T21:27:12.433Z,8.38
2023-05-21T21:29:39.246Z,12.93
2023-05-21T21:32:06.483Z,14.45
2023-05-21T21:34:33.248Z,14.35
2023-05-21T21:37:00.007Z,17.80
2023-05-21T21:39:26.984Z,22.00
2023-05-21T21:41:53.797Z,19.05
2023-05-21T21:44:20.604Z,18.08
2023-05-21T21:46:47.822Z,15.10
2023-05-21T21:49:17.441Z,25.25
2023-05-21T21:51:44.923Z,45.45
2023-05-21T21:54:11.989Z,67.38
2023-05-21T21:56:38.767Z,62.15
2023-05-21T21:59:05.657Z,42.97
2023-05-21T22:01:32.663Z,31.05
2023-05-21T22:03:59.688Z,26.95
2023-05-21T22:06:27.763Z,16.02
2023-05-21T22:08:54.781Z,16.40
2023-05-21T22:11:21.964Z,11.10
2023-05-21T22:13:48.907Z,8.90
2023-05-21T22:16:15.861Z,8.63
2023-05-21T22:18:42.665Z,9.68
2023-05-21T22:21:10.670Z,9.07
2023-05-21T22:23:38.583Z,7.18
2023-05-21T22:26:06.318Z,7.93
2023-05-21T22:28:33.226Z,7.70
2023-05-21T22:31:00.001Z,7.90
2023-05-21T22:33:26.955Z,8.18
2023-05-21T22:35:54.591Z,11.35
2023-05-21T22:38:22.028Z,6.63
2023-05-21T22:40:48.879Z,6.57
2023-05-21T22:43:15.858Z,7.97
2023-05-21T22:45:42.666Z,7.32
2023-05-21T22:48:09.472Z,6.78
2023-05-21T22:50:38.243Z,7.60
2023-05-21T22:53:06.091Z,8.02
2023-05-21T22:55:32.941Z,6.65
2023-05-21T22:57:59.724Z,7.22
2023-05-21T23:00:26.880Z,8.95
2023-05-21T23:02:54.765Z,7.78
2023-05-21T23:05:22.474Z,7.88
2023-05-21T23:07:49.980Z,7.30
2023-05-21T23:10:16.842Z,7.70
2023-05-21T23:12:43.670Z,7.35
2023-05-21T23:15:10.971Z,12.05
2023-05-21T23:17:38.405Z,7.55
2023-05-21T23:20:07.246Z,6.63
2023-05-21T23:22:35.346Z,7.00
2023-05-21T23:25:02.586Z,6.93
2023-05-21T23:27:29.499Z,7.97
2023-05-21T23:29:56.410Z,7.10
2023-05-21T23:32:23.633Z,7.60
2023-05-21T23:34:50.813Z,12.10
2023-05-21T23:37:17.926Z,7.72
2023-05-21T23:39:48.278Z,8.52
2023-05-21T23:42:18.696Z,6.60
2023-05-21T23:44:45.581Z,7.07
2023-05-21T23:47:12.357Z,6.88
2023-05-21T23:49:39.480Z,7.43
2023-05-21T23:52:06.794Z,8.73
2023-05-21T23:54:33.570Z,5.40
2023-05-21T23:57:00.650Z,7.45
2023-05-21T23:59:27.414Z,7.38
